Barbeau, MI

4:53 PM EST on December 20, 2014 (GMT -0500)
NOS_NWLON West Neebish Island, MI NWLON | Change Station
CLOSE
Current Station
Personal Weather Station
Location: Barbeau, MI
Elevation: 593 ft
Nearby Weather Stations

Elev 593 ft 46.28 °N, 84.21 °W | Updated 3 hours ago

Partly Cloudy
Partly Cloudy
23 °F
Feels Like 23 °F
N
2
Wind Variable Wind from ENE
Gusts 2.0 mph

Today
High -- | Low -- °F
--% Chance of Precip.
Yesterday
High -- | Low -- °F
Precip. -- in
8:16 AM 4:52 PM
Waning Crescent, 2% visible
Pressure 30.25 in
Visibility 10.0 miles
Clouds Overcast 2000 ft
Windchill 23 °F
Dew Point Not available.
Humidity Not available.
Rainfall -999.00 in
Snow Depth Not available.
UV 0 out of 12
Pollen .10 out of 12
Air Quality Not available.
Flu Activity Not available.
METAR KCIU 202135Z AUTO 15004KT 10SM OVC020 M04/M06 A3025 RMK AO1

More Conditions Fewer Conditions

Pressure 30.25 in
Visibility 10.0 miles
Clouds Overcast 2000 ft
Windchill 23 °F
Dew Point Not available.
Humidity Not available.
Rainfall -999.00 in
Snow Depth Not available.
UV 0 out of 12
Pollen .10 out of 12
Air Quality Not available.
Flu Activity Not available.
METAR KCIU 202135Z AUTO 15004KT 10SM OVC020 M04/M06 A3025 RMK AO1

More Conditions Fewer Conditions

Nowcast | as of 4:00 PM EST on December 20, 2014

At 5 PM...mostly cloudy. Temperature 27. Light winds. At 7 PM...cloudy. Temperature 25. Light winds. At 9 PM...cloudy. Temperature 23. Light winds. At 11 PM...cloudy. Temperature 22. Light winds.

×

10-Day Weather Forecast

Almanac

Astronomy

Dec. 20, 2014 Rise Set
Actual Time
Civil Twilight
Nautical Twilight
Astronomical Twilight
Moon
Length of Visible Light
Length of Day
Tomorrow will be .
, % of the Moon is Illuminated

Today's Extremes

State Highs State Lows

Community

WunderPhotos

Upload Photos

1,779,286 photos uploaded!

WunderBlogs® & News

Nearby

Air Quality

  Air Quality AQ Index Pollutant
Not available.

Snow Depth

Station Depth Elevation

Earthquake Activity

City Distance Mag. Time & Date
Minimum magnitude displayed is 2.5.

Coastal Water Temperatures

Place Temperature

Nearby Weather Stations